此METAR来自2022年8月16日 12:30. 最近的
罗盘
风向 的 风向 090° Troye d'Ariège ULM 11/29
风: 17 kt, 5 beaufort

16 kt

6 kt
改变
0 1.000 2.000 3.000 4.000 5.000
CAVOK
METAR LFMK 161030Z AUTO 09017KT CAVOK 30/15 Q1006 BECMG 09015G25KT FEW060CB BKN120

METAR Troye d'Ariège ULM - FR-0355

Troye d'Ariège ULM是Troye d'Ariège,法国中的小机场。 该机场有一条跑道: 11/29. 该领域的国际民航组织标志是FR-0355.

这份报告是针对2022年8月16日 12:30, 当地时间在Carcassonne Airport进行的。

机场观察

风向为090°,速度为17 kt。

天气为CAVOK。这意味着在5.000 ft或MSA(最低安全高度)以下(以较高者为准)以下没有云。这也意味着没有观测到积雨云或高耸的积云,可见度为10 km 或者更多或更高。此外,不会有雾,降雨或其他重要天气。

温度和风寒是30 °C。 热指数为29。 露点为15 °C,相对湿度为40%。 海平面上的气压为1006 hPa (QNH)。

发展趋势

  • 变得

    风来自090°方向,速度为15 kt。 预计25 kt阵风。 几云 积雨云在6.000 ft的高度 和 碎云在12.000 ft的高度.

白天

今天,太阳从07:46升起,在19:39降落。 这适用于Troye d'Ariège ULM,世界夏令时可能有所不同。 当地时间与世界标准时间之间的时差为+2 小时。 夏令时目前正在进行中。

公司介绍

我们没有关于这个机场的公司信息。

体会

到Vliegles.nl去找飞行课程,跳伞和其他飞行体验。 浏览页面,了解Troye d'Ariège ULM附近所有可用的活动。 你也可以使用搜索功能来寻找你所在地附近的特定飞行课程、跳伞或其他飞行体验。

跑道

Id 标题 侧风 逆风 侧风 %
11/29 110°-290° 6 kt 16 kt 34 %

逆风成分最大的方向会被突出显示,并用于横风计算。 这并不一定意味着这个方向在使用。

温度 & 天气

温度 30 °C
露点 15 °C
相对湿度 40%
热度指数 29 °C
Kp-index 0 (0-9)

白天

日出
06:57
中午
13:55
日落
20:52

小工具

你想在你的网站上有一个关于Troye d'Ariège ULM的当前航空天气(METAR)的小部件吗?

</> 显示HTML代码

我们和第三方通过cookies跟踪您在我们网站上的上网行为。如果您继续,我们认为您同意我们的cookie政策。 了解更多